Fraser, New York
Current Conditions -  °F | °C
As of 9:55 PM on Wednesday 26 Nov 2014 (Local Time) from KMSV Reporting Station
Overcast Overcast  
Wind Chill: 22°   Ceiling: 2300
Heat Index: 30°   Visibility: 9mi
Dew Point: 27°   Wind: 9mph
Humidity: 86%   Direction: 330°NNW
Pressure: 29.84"   Gusts: NA
Location:  42.3065°N, 74.9298°W
Report Text: KMSV 270255Z AUTO 33008KT 9SM FEW017 BKN023 OVC035 M01/M03 A2984 RMK AO1 57014
Loading
Personal Weather Stations






























Interactive Weather Map New forecast layout! Learn more

10-Day Weather Forecast

Advertisements
Track Severe Weather on mobile